BQD weather

Búðardalur Airport
Búðardalur, Western Region, Iceland

Public forecast

Using degrees Celsius for public forecast. Weather courtesy of forecast.io.

METAR (pilot weather report)

Report is more than 6 hours old.

Closest report is Bildudalur Airport, 55.4 nm (102.5 km) NW. Retrieved 2019/04/25 16:38 UTC (7 hours ago):

BIBD 251638Z 01008KT CAVOK 14/04 Q1000

TAF (pilot weather forecast)

Closest forecast is Reykjavik Airport, 56.9 nm (105.3 km) S. Retrieved 2019/04/25 21:30 UTC (2 hours ago):

TAF BIRK 251918Z 2521/2621 13014KT 9999 FEW020 SCT050 TX12/2615Z TN07/2621Z BECMG 2522/2600 5000 RADZ BR SCT010 OVC020 BECMG 2605/2608 9999 -SHRA BKN020 TEMPO 2618/2621 7000 RADZ SCT012 OVC020